Petawawa Airport
CYWA : now visible

Airfield :











YOU CAN JOIN US ON...

 
LOGIN :

Register | Disclaimer

   EN    FR    IT 

 









Legend :    VFR   Marginal VFR   IFR   Intensive IFR   Very Intensive IFR
Visi :
Ceiling :
>= 8 km
>= 3000ft
5 to 8 km
1000 to 3000 ft
1500m to 5 km
500 to 1000 ft
800 to 1500m
200 to 500 ft
< 800m
< 200 ft
Symbols :   Thunderstorms  Fog  Heavy snow  Heavy precipitations  Wind > 20 kt






- Airport Elevation : 427 ft
- IATA code : YWA


CYWA - Petawawa

CURRENT METAR :
  • 141700Z AUTO 14007KT 5SM -SN FEW010 BKN025 OVC058 M04/M06 A3010 RMK PCPN 0.5MM PAST HR SLP201

EXPIRED METARs :
  • 141647Z AUTO 14008KT 120V180 5SM -SN SCT010 BKN025 OVC058 M04/M06 A3010
  • 141553Z AUTO 15008KT 2 1/2SM -SN VV009 M05/M06 A3012

TAF AMD TAF CYWA
Valid from the 14 at 14:00 until the 15 at 00:00 UTC


141430Z 1414/1424 15008KT 4SM -SN SCT010 OVC020
TEMPO 1414/1418 3/4SM -SN VV008
FM141800 17008KT P6SM BKN025
TEMPO 1418/1424 4SM -SN BKN020 RMK FCST BASED ON AUTO OBS. NXT FCST BY 141800Z



MET'MAP, your aeronautical weather chart ! - Copyright ORBIFLY December 2007 - Disclaimer

ORBIFLY MET'MAP TEAM :

Programming & Development : Alexandra Zaïnal
Concept & Development : Baudouin d'Aumeries
Co-Development & Prog : Marc-Olivier Méhu
Technical & hardware support : Manuel Goepfert

Contact : metmap@orbifly.com




SOURCES & CREDITS :

   NOAA       Earth
Advisory